Time;durP1;ratioP1;P1;durP2;ratioP2;P2;SDS_P1;SDS_P2;PMS_P1;PMS_P2;Temp;Humidity;BMP_temperature;BMP_pressure;BME280_temperature;BME280_humidity;BME280_pressure;Samples;Min_cycle;Max_cycle;Signal;HPM_P1;HPM_P2
2021/04/05 00:01:48;;;;;;;16.42;7.78;;;;;;;16.45;55.37;100514.75;143745;571;46020;-92
2021/04/05 00:04:15;;;;;;;13.35;7.15;;;;;;;16.40;54.54;100524.22;143751;571;46008;-90
2021/04/05 00:06:41;;;;;;;13.40;7.32;;;;;;;16.27;54.37;100519.53;143749;619;46018;-92
2021/04/05 00:09:08;;;;;;;19.67;7.97;;;;;;;16.28;53.80;100516.94;143753;569;47008;-91
2021/04/05 00:11:35;;;;;;;12.55;7.80;;;;;;;16.31;53.44;100517.00;143748;606;46018;-91
2021/04/05 00:14:02;;;;;;;12.60;6.40;;;;;;;16.27;53.55;100522.16;143750;567;46008;-92
2021/04/05 00:16:30;;;;;;;11.90;6.30;;;;;;;16.30;53.08;100530.06;143748;618;46019;-90
2021/04/05 00:18:57;;;;;;;10.52;6.05;;;;;;;16.32;52.02;100530.97;143752;562;47008;-89
2021/04/05 00:21:25;;;;;;;9.25;6.10;;;;;;;16.32;52.20;100524.03;143748;620;46020;-90
2021/04/05 00:23:53;;;;;;;11.38;6.00;;;;;;;16.25;52.01;100529.06;143747;591;46019;-91
2021/04/05 00:26:21;;;;;;;12.30;5.65;;;;;;;16.23;51.46;100538.59;143752;568;46018;-92
2021/04/05 00:28:49;;;;;;;10.43;5.85;;;;;;;16.15;49.91;100541.91;143751;636;46018;-92
2021/04/05 00:31:16;;;;;;;16.45;6.18;;;;;;;16.15;50.21;100536.69;143749;618;46020;-91
2021/04/05 00:33:43;;;;;;;13.20;5.43;;;;;;;16.17;50.43;100536.72;143747;579;47008;-90
2021/04/05 00:36:10;;;;;;;12.68;5.35;;;;;;;16.08;51.24;100537.38;143750;564;46010;-92
2021/04/05 00:38:37;;;;;;;10.18;5.53;;;;;;;16.07;50.99;100543.44;143751;633;46008;-90
2021/04/05 00:41:13;;;;;;;13.88;5.70;;;;;;;16.05;50.54;100545.13;143750;595;46021;-93
2021/04/05 00:43:41;;;;;;;12.20;5.25;;;;;;;15.99;49.61;100555.44;143749;568;46008;-91
2021/04/05 00:46:08;;;;;;;10.40;5.72;;;;;;;15.96;49.37;100567.56;143748;568;46019;-90
2021/04/05 00:48:36;;;;;;;8.85;5.50;;;;;;;15.88;49.48;100567.31;143749;576;47008;-91
2021/04/05 00:51:09;;;;;;;15.23;4.70;;;;;;;15.82;48.57;100582.84;143748;625;46914;-89
2021/04/05 00:53:38;;;;;;;12.60;5.37;;;;;;;15.75;48.16;100587.03;143750;705;46008;-92
2021/04/05 00:56:05;;;;;;;7.87;5.10;;;;;;;15.70;48.89;100589.53;143750;567;46018;-91
2021/04/05 00:58:33;;;;;;;9.73;5.40;;;;;;;15.76;48.02;100600.97;143750;583;47008;-90
2021/04/05 01:01:03;;;;;;;7.45;5.00;;;;;;;15.72;47.69;100600.00;143751;628;46030;-89
2021/04/05 01:03:32;;;;;;;8.25;4.72;;;;;;;15.68;47.71;100600.78;143750;563;46008;-89
2021/04/05 01:06:11;;;;;;;7.05;4.80;;;;;;;15.68;48.61;100590.31;143747;715;46018;-92
2021/04/05 01:08:38;;;;;;;10.48;4.85;;;;;;;15.70;49.60;100597.38;143749;591;47008;-91
2021/04/05 01:11:06;;;;;;;9.23;5.68;;;;;;;15.69;50.31;100587.72;143750;643;46021;-89
2021/04/05 01:13:33;;;;;;;8.57;5.22;;;;;;;15.72;49.80;100593.91;143749;638;46008;-90
2021/04/05 01:16:00;;;;;;;10.88;5.40;;;;;;;15.66;50.80;100597.19;143748;608;46019;-91
2021/04/05 01:18:31;;;;;;;7.65;5.18;;;;;;;15.64;50.45;100589.31;143754;576;46008;-90
2021/04/05 01:20:58;;;;;;;8.60;5.22;;;;;;;15.51;50.86;100592.38;143746;608;46020;-90
2021/04/05 01:23:25;;;;;;;13.02;6.12;;;;;;;15.55;51.77;100601.22;143743;693;47008;-89
2021/04/05 01:25:53;;;;;;;11.32;6.18;;;;;;;15.45;52.89;100602.66;143745;574;46018;-91
2021/04/05 01:28:20;;;;;;;15.80;6.50;;;;;;;15.46;51.99;100615.78;143751;564;47008;-89
2021/04/05 01:30:49;;;;;;;21.48;6.97;;;;;;;15.46;52.25;100626.25;143747;681;46019;-91
2021/04/05 01:33:26;;;;;;;25.12;6.70;;;;;;;15.52;52.32;100625.53;143745;568;47008;-90
2021/04/05 01:36:06;;;;;;;11.50;5.95;;;;;;;15.39;52.19;100634.75;143748;586;46018;-90
2021/04/05 01:38:36;;;;;;;11.60;5.75;;;;;;;15.37;51.56;100646.87;143750;590;46009;-90
2021/04/05 01:41:15;;;;;;;12.40;5.55;;;;;;;15.38;51.79;100652.97;143747;621;46018;-90
2021/04/05 01:43:43;;;;;;;9.18;5.47;;;;;;;15.37;51.38;100657.31;143745;577;46008;-89
2021/04/05 01:46:12;;;;;;;9.23;5.20;;;;;;;15.41;51.69;100650.44;143749;574;46019;-91
2021/04/05 01:48:40;;;;;;;10.85;5.10;;;;;;;15.44;51.02;100658.38;143751;572;47008;-90
2021/04/05 01:51:14;;;;;;;9.30;5.12;;;;;;;15.48;51.14;100661.16;143746;610;46020;-91
2021/04/05 01:53:43;;;;;;;10.95;5.35;;;;;;;15.37;51.05;100674.72;143746;562;47008;-90
2021/04/05 01:56:12;;;;;;;12.10;5.57;;;;;;;15.33;52.19;100670.25;143746;579;46029;-90
2021/04/05 01:58:44;;;;;;;10.05;5.85;;;;;;;15.31;51.80;100667.56;143748;586;47008;-90
2021/04/05 02:01:18;;;;;;;7.05;4.90;;;;;;;15.38;51.81;100669.53;143749;584;46020;-91
2021/04/05 02:03:45;;;;;;;10.02;5.70;;;;;;;15.34;51.58;100672.91;143751;755;46008;-89
2021/04/05 02:06:19;;;;;;;6.78;5.30;;;;;;;15.35;51.30;100674.66;143748;579;47010;-92
2021/04/05 02:08:46;;;;;;;10.05;5.32;;;;;;;15.28;51.92;100664.88;143751;578;46025;-90
2021/04/05 02:11:16;;;;;;;11.98;5.37;;;;;;;15.36;51.51;100665.13;143750;595;46020;-90
2021/04/05 02:13:45;;;;;;;11.27;5.60;;;;;;;15.37;51.81;100659.94;143750;575;46008;-89
2021/04/05 02:16:16;;;;;;;9.50;5.12;;;;;;;15.28;51.72;100664.00;143749;588;46021;-90
2021/04/05 02:18:44;;;;;;;9.88;5.00;;;;;;;15.31;51.75;100664.09;143752;583;46021;-89
2021/04/05 02:21:12;;;;;;;10.15;5.32;;;;;;;15.29;51.62;100674.47;143750;658;46018;-89
2021/04/05 02:23:40;;;;;;;8.13;5.65;;;;;;;15.27;51.94;100685.75;143750;603;47008;-91
2021/04/05 02:26:08;;;;;;;11.25;5.57;;;;;;;15.33;51.56;100676.34;143748;567;46018;-89
2021/04/05 02:28:58;;;;;;;8.38;5.15;;;;;;;15.18;51.52;100670.66;143755;564;46008;-90
2021/04/05 02:31:26;;;;;;;11.98;6.57;;;;;;;15.17;51.27;100661.94;143748;691;46023;-90
2021/04/05 02:33:55;;;;;;;14.20;6.45;;;;;;;15.26;51.06;100661.31;143747;666;47008;-91
2021/04/05 02:36:24;;;;;;;17.05;6.10;;;;;;;15.27;51.33;100659.62;143750;571;46018;-87
2021/04/05 02:38:56;;;;;;;16.20;5.78;;;;;;;15.31;51.83;100658.84;143753;581;46009;-89
2021/04/05 02:41:26;;;;;;;12.82;6.35;;;;;;;15.31;51.52;100666.69;143753;630;46020;-93
2021/04/05 02:43:53;;;;;;;10.35;5.37;;;;;;;15.31;50.50;100662.34;143751;562;46010;-90
2021/04/05 02:46:27;;;;;;;13.65;6.30;;;;;;;15.23;51.01;100663.81;143747;621;47010;-91
2021/04/05 02:48:56;;;;;;;13.88;5.97;;;;;;;15.32;50.15;100678.91;143751;609;47008;-89
2021/04/05 02:51:24;;;;;;;13.13;5.70;;;;;;;15.35;50.64;100679.00;143749;569;46018;-89
2021/04/05 02:53:55;;;;;;;8.65;5.72;;;;;;;15.38;51.86;100673.88;143750;591;47008;-88
2021/04/05 02:56:22;;;;;;;16.23;6.70;;;;;;;15.34;51.73;100682.47;143749;562;46018;-89
2021/04/05 02:58:51;;;;;;;10.35;6.15;;;;;;;15.31;52.69;100682.38;143754;569;46008;-89
2021/04/05 03:01:20;;;;;;;10.77;5.95;;;;;;;15.31;53.00;100666.69;143749;595;46020;-89
2021/04/05 03:03:47;;;;;;;12.82;6.50;;;;;;;15.23;52.37;100676.88;143750;580;46018;-88
2021/04/05 03:06:19;;;;;;;12.25;6.12;;;;;;;15.23;52.67;100675.19;143748;574;46018;-90
2021/04/05 03:08:47;;;;;;;14.87;7.97;;;;;;;15.08;53.39;100661.66;143754;590;46025;-88
2021/04/05 03:11:20;;;;;;;23.27;10.13;;;;;;;15.18;53.30;100665.44;143750;585;46020;-88
2021/04/05 03:13:48;;;;;;;19.35;8.15;;;;;;;15.19;54.34;100678.53;143750;591;46920;-89
2021/04/05 03:16:27;;;;;;;11.88;6.82;;;;;;;15.09;55.33;100680.81;143750;646;46019;-88
2021/04/05 03:18:57;;;;;;;12.57;6.82;;;;;;;15.13;55.27;100687.87;143752;565;47008;-90
2021/04/05 03:21:25;;;;;;;20.05;7.90;;;;;;;15.05;55.78;100684.16;143749;588;47914;-88
2021/04/05 03:23:53;;;;;;;11.77;6.37;;;;;;;15.11;55.65;100695.69;143753;592;46010;-89
2021/04/05 03:26:20;;;;;;;15.65;6.72;;;;;;;15.08;55.34;100690.38;143749;569;47010;-90
2021/04/05 03:28:47;;;;;;;14.18;6.25;;;;;;;15.04;50.89;100698.03;143754;574;46008;-88
2021/04/05 03:31:19;;;;;;;9.68;5.82;;;;;;;14.98;50.02;100699.62;143751;567;47012;-91
2021/04/05 03:33:59;;;;;;;10.60;5.60;;;;;;;14.93;49.79;100695.09;143753;595;46008;-89
2021/04/05 03:36:55;;;;;;;8.95;5.47;;;;;;;14.88;48.91;100700.12;143748;682;46026;-90
2021/04/05 03:39:22;;;;;;;9.27;5.57;;;;;;;14.89;48.61;100704.53;143756;577;46010;-92
2021/04/05 03:42:05;;;;;;;9.60;5.47;;;;;;;14.84;48.84;100721.75;143751;581;46020;-89
2021/04/05 03:45:10;;;;;;;9.43;6.10;;;;;;;14.97;49.54;100721.34;143753;749;46022;-92
2021/04/05 03:47:56;;;;;;;11.55;6.03;;;;;;;14.99;50.76;100708.34;143752;562;47008;-89
2021/04/05 03:50:58;;;;;;;9.20;5.53;;;;;;;14.95;47.94;100701.22;143755;682;47008;-89
2021/04/05 03:53:48;;;;;;;10.57;5.72;;;;;;;15.02;49.85;100703.22;143747;623;46021;-91
2021/04/05 03:56:17;;;;;;;9.98;6.10;;;;;;;15.08;50.38;100698.19;143751;575;47008;-90
2021/04/05 03:58:49;;;;;;;9.85;5.97;;;;;;;15.09;50.75;100706.91;143751;577;46018;-89
2021/04/05 04:01:20;;;;;;;11.43;6.78;;;;;;;15.05;49.43;100713.78;143755;594;46008;-89
2021/04/05 04:07:15;;;;;;;13.13;6.70;;;;;;;15.19;49.79;100722.91;143754;585;46008;-87
2021/04/05 04:09:45;;;;;;;11.32;6.28;;;;;;;15.00;49.64;100720.56;143751;651;46018;-90
2021/04/05 04:12:14;;;;;;;13.00;6.15;;;;;;;14.96;48.46;100731.75;143755;579;47008;-91
2021/04/05 04:14:42;;;;;;;15.85;6.55;;;;;;;14.90;48.55;100729.81;143752;595;46019;-90
2021/04/05 04:17:11;;;;;;;9.75;6.62;;;;;;;14.80;48.49;100732.94;143752;608;46008;-89
2021/04/05 04:19:39;;;;;;;12.40;6.53;;;;;;;14.74;48.55;100722.28;143750;583;46018;-91
2021/04/05 04:22:07;;;;;;;8.77;6.18;;;;;;;14.77;49.15;100732.84;143753;591;47008;-90
2021/04/05 04:24:34;;;;;;;10.60;6.30;;;;;;;14.74;48.71;100740.56;143750;568;46021;-89
2021/04/05 04:27:02;;;;;;;10.38;6.80;;;;;;;14.63;48.61;100747.12;143752;584;46008;-89
2021/04/05 04:29:29;;;;;;;12.77;6.32;;;;;;;14.72;49.01;100748.34;143751;571;46018;-90
2021/04/05 04:31:56;;;;;;;11.20;6.93;;;;;;;14.59;49.26;100756.56;143756;644;46008;-90
2021/04/05 04:34:24;;;;;;;11.93;6.28;;;;;;;14.64;49.46;100757.62;143751;621;46020;-92
2021/04/05 04:36:51;;;;;;;12.45;6.32;;;;;;;14.63;49.86;100758.44;143753;562;46009;-91
2021/04/05 04:39:19;;;;;;;14.93;6.43;;;;;;;14.55;50.37;100755.56;143750;568;46018;-88
2021/04/05 04:41:47;;;;;;;18.62;7.12;;;;;;;14.63;49.68;100768.87;143753;586;47008;-88
2021/04/05 04:44:15;;;;;;;17.80;6.10;;;;;;;14.62;49.58;100763.63;143752;585;46020;-89
2021/04/05 04:46:42;;;;;;;12.23;6.45;;;;;;;14.60;48.41;100760.94;143750;584;47008;-88
2021/04/05 04:49:12;;;;;;;9.80;6.25;;;;;;;14.61;48.79;100780.09;143754;649;46018;-89
2021/04/05 04:51:40;;;;;;;12.73;6.57;;;;;;;14.62;47.93;100780.16;143753;585;47008;-88
2021/04/05 04:54:10;;;;;;;11.82;6.35;;;;;;;14.61;48.03;100775.78;143749;582;46021;-89
2021/04/05 04:56:38;;;;;;;12.25;6.50;;;;;;;14.65;49.01;100782.87;143752;584;46008;-89
2021/04/05 04:59:10;;;;;;;12.13;6.95;;;;;;;14.70;48.04;100781.34;143751;674;46019;-89
2021/04/05 05:01:39;;;;;;;12.98;6.53;;;;;;;14.79;48.87;100797.28;143753;612;47008;-89
2021/04/05 05:04:18;;;;;;;10.57;7.07;;;;;;;14.77;50.97;100795.50;143751;696;46018;-89
2021/04/05 05:06:47;;;;;;;12.37;6.62;;;;;;;14.67;50.44;100795.97;143751;568;46008;-89
2021/04/05 05:09:16;;;;;;;10.07;6.90;;;;;;;14.75;50.43;100794.53;143750;587;46018;-88
2021/04/05 05:11:43;;;;;;;13.60;7.43;;;;;;;14.74;51.03;100793.66;143753;604;46008;-88
2021/04/05 05:14:12;;;;;;;15.63;7.82;;;;;;;14.67;51.53;100798.59;143753;624;46018;-90
2021/04/05 05:16:39;;;;;;;14.52;8.18;;;;;;;14.55;50.44;100799.06;143753;581;47008;-89
2021/04/05 05:19:06;;;;;;;17.12;7.57;;;;;;;14.69;49.40;100807.38;143752;583;46018;-90
2021/04/05 05:21:53;;;;;;;14.23;6.72;;;;;;;14.66;49.23;100809.87;143753;570;47008;-88
2021/04/05 05:24:29;;;;;;;18.87;7.60;;;;;;;14.72;49.51;100816.19;143751;623;46018;-88
2021/04/05 05:26:57;;;;;;;14.00;8.43;;;;;;;14.74;50.64;100818.88;143753;575;46008;-89
2021/04/05 05:29:25;;;;;;;17.05;8.60;;;;;;;14.76;53.24;100818.06;143748;630;46018;-89
2021/04/05 05:31:52;;;;;;;13.43;7.90;;;;;;;14.76;51.94;100822.41;143755;578;47008;-91
2021/04/05 05:34:23;;;;;;;15.70;7.50;;;;;;;14.75;52.14;100831.06;143750;744;46020;-89
2021/04/05 05:36:50;;;;;;;13.57;8.90;;;;;;;14.76;53.40;100820.69;143751;578;46008;-90
2021/04/05 05:39:18;;;;;;;17.48;11.38;;;;;;;14.77;52.29;100814.66;143752;624;46018;-87
2021/04/05 05:42:33;;;;;;;18.80;10.52;;;;;;;14.78;52.86;100813.81;143753;587;47008;-90
2021/04/05 05:45:08;;;;;;;13.93;7.70;;;;;;;14.85;52.74;100827.06;143751;562;46019;-88
2021/04/05 05:48:21;;;;;;;16.48;7.80;;;;;;;14.86;53.71;100827.13;143754;644;47008;-89
2021/04/05 05:51:10;;;;;;;13.60;7.37;;;;;;;14.86;53.25;100837.59;143750;568;46027;-90
2021/04/05 05:54:00;;;;;;;10.52;6.82;;;;;;;14.97;53.87;100838.84;143754;601;47010;-88
2021/04/05 05:57:07;;;;;;;14.65;8.10;;;;;;;14.90;55.41;100843.81;143751;567;46018;-88
2021/04/05 05:59:55;;;;;;;15.80;6.95;;;;;;;14.98;55.13;100844.94;143753;588;46010;-89
2021/04/05 06:02:58;;;;;;;10.20;6.12;;;;;;;14.95;55.22;100856.19;143751;638;46018;-89
2021/04/05 06:05:57;;;;;;;10.57;7.05;;;;;;;15.12;54.81;100858.50;143755;591;46010;-89
2021/04/05 06:08:53;;;;;;;8.38;6.20;;;;;;;15.06;54.82;100868.72;143750;574;46018;-88
2021/04/05 06:12:12;;;;;;;12.15;6.97;;;;;;;15.05;55.60;100869.56;143752;571;46008;-88
2021/04/05 06:15:34;;;;;;;10.95;6.95;;;;;;;15.03;54.24;100869.50;143750;574;47010;-90
2021/04/05 06:18:40;;;;;;;8.18;5.87;;;;;;;14.99;54.54;100875.47;143753;567;47008;-87
2021/04/05 06:21:23;;;;;;;11.85;6.68;;;;;;;15.07;54.72;100876.59;143753;562;46022;-90
2021/04/05 06:23:56;;;;;;;10.18;6.45;;;;;;;15.09;54.17;100884.50;143752;624;46018;-89
2021/04/05 06:27:01;;;;;;;11.48;7.03;;;;;;;15.06;54.71;100885.28;143751;561;46018;-88
2021/04/05 06:29:53;;;;;;;14.40;6.50;;;;;;;15.14;54.91;100888.16;143750;583;47008;-88
2021/04/05 06:32:54;;;;;;;12.77;7.72;;;;;;;15.14;55.28;100899.50;143750;596;46018;-89
2021/04/05 06:36:09;;;;;;;10.20;6.55;;;;;;;15.20;55.66;100912.78;143752;564;46008;-88
2021/04/05 06:38:46;;;;;;;15.82;6.20;;;;;;;15.21;53.81;100911.06;143754;604;46018;-86
2021/04/05 06:41:56;;;;;;;10.82;7.22;;;;;;;15.24;55.05;100917.28;143753;569;47008;-88
2021/04/05 06:45:11;;;;;;;11.60;6.40;;;;;;;15.31;54.80;100928.81;143752;631;46029;-87
2021/04/05 06:48:43;;;;;;;13.23;7.00;;;;;;;15.25;55.08;100921.66;143751;562;47008;-87
2021/04/05 06:52:01;;;;;;;11.35;6.00;;;;;;;15.29;54.83;100921.75;143754;590;46019;-88
2021/04/05 06:55:14;;;;;;;11.18;6.90;;;;;;;15.24;54.87;100921.63;143755;568;46016;-87
2021/04/05 06:58:10;;;;;;;12.37;6.80;;;;;;;15.34;55.00;100942.00;143751;646;46019;-87
2021/04/05 07:00:50;;;;;;;;;;;;;;;15.38;54.44;100946.50;143755;977;47008;-85
2021/04/05 07:03:57;;;;;;;12.93;7.62;;;;;;;15.41;54.18;100948.31;143755;638;46018;-83
2021/04/05 07:06:41;;;;;;;17.30;6.68;;;;;;;15.46;54.51;100952.88;143748;586;47010;-90
2021/04/05 07:09:42;;;;;;;12.10;6.47;;;;;;;15.45;54.63;100953.72;143748;582;46018;-83
2021/04/05 07:12:52;;;;;;;11.25;6.10;;;;;;;15.44;54.42;100951.94;143745;605;46010;-82
2021/04/05 07:16:01;;;;;;;13.70;7.00;;;;;;;15.54;52.93;100953.13;143748;576;46019;-89
2021/04/05 07:19:05;;;;;;;14.48;6.62;;;;;;;15.59;52.64;100953.31;143747;583;47010;-86
2021/04/05 07:22:05;;;;;;;12.82;7.35;;;;;;;15.51;52.59;100949.53;143748;665;46020;-85
2021/04/05 07:25:09;;;;;;;15.27;7.70;;;;;;;15.58;52.90;100946.31;143745;610;46010;-88
2021/04/05 07:28:10;;;;;;;13.18;7.00;;;;;;;15.67;54.41;100952.78;143748;598;46018;-90
2021/04/05 07:30:54;;;;;;;12.37;7.45;;;;;;;15.77;54.08;100956.59;143749;572;46010;-83
2021/04/05 07:33:42;;;;;;;13.27;7.00;;;;;;;15.81;54.13;100952.34;143738;575;46018;-90
2021/04/05 07:36:38;;;;;;;14.77;7.78;;;;;;;15.88;54.90;100955.19;143747;574;47012;-87
2021/04/05 07:39:27;;;;;;;;;;;;;;;15.85;53.51;100956.84;143750;967;46027;-88
2021/04/05 07:42:41;;;;;;;12.30;6.60;;;;;;;15.84;54.24;100975.97;143750;583;47010;-89
2021/04/05 07:45:14;;;;;;;15.73;7.97;;;;;;;15.82;53.00;100969.81;143748;568;46018;-87
2021/04/05 07:48:13;;;;;;;12.40;7.03;;;;;;;15.82;52.77;100977.66;143747;590;46008;-83
2021/04/05 07:50:56;;;;;;;14.70;7.30;;;;;;;15.77;52.57;100990.59;143747;568;46020;-92
2021/04/05 07:54:08;;;;;;;14.80;7.20;;;;;;;15.74;51.47;101007.88;143750;562;46008;-88
2021/04/05 07:56:45;;;;;;;13.68;6.95;;;;;;;15.70;50.31;101002.56;143744;569;46020;-84
2021/04/05 07:59:40;;;;;;;14.18;7.55;;;;;;;15.66;51.23;101003.22;143744;585;46008;-85
2021/04/05 08:02:37;;;;;;;14.80;7.82;;;;;;;15.64;51.42;101020.59;143740;584;46010;-86
2021/04/05 08:05:58;;;;;;;12.07;7.37;;;;;;;15.62;52.44;101022.25;143751;571;46017;-84
2021/04/05 08:08:39;;;;;;;13.82;7.35;;;;;;;15.65;51.57;101026.72;143749;577;46018;-87
2021/04/05 08:11:31;;;;;;;11.50;7.75;;;;;;;15.64;52.21;101028.44;143750;633;46008;-85
2021/04/05 08:14:34;;;;;;;15.93;7.43;;;;;;;15.73;53.49;101022.66;143750;689;46019;-85
2021/04/05 08:17:36;;;;;;;10.63;7.07;;;;;;;15.88;53.81;101019.69;143752;582;46008;-89
2021/04/05 08:20:41;;;;;;;12.13;7.53;;;;;;;15.94;52.78;101009.44;143748;572;46010;-89
2021/04/05 08:23:53;;;;;;;16.62;8.55;;;;;;;15.93;51.98;101015.53;143750;571;46018;-88
2021/04/05 08:26:49;;;;;;;15.63;8.63;;;;;;;16.04;51.63;101019.38;143752;569;47010;-92
2021/04/05 08:29:53;;;;;;;13.23;7.68;;;;;;;16.09;52.97;101025.66;143751;591;47011;-92
2021/04/05 08:32:56;;;;;;;11.40;7.18;;;;;;;16.17;50.55;101031.16;143748;623;46018;-88
2021/04/05 08:35:43;;;;;;;12.52;7.05;;;;;;;16.09;51.04;101030.88;143748;593;47008;-85
2021/04/05 08:38:19;;;;;;;12.37;7.55;;;;;;;16.15;51.97;101028.47;143748;586;47018;-85
2021/04/05 08:41:21;;;;;;;12.82;7.07;;;;;;;16.14;50.91;101029.34;143753;621;47008;-84
2021/04/05 08:44:14;;;;;;;9.68;7.18;;;;;;;16.14;50.43;101012.75;143750;580;46021;-85
2021/04/05 08:46:41;;;;;;;11.63;6.97;;;;;;;16.02;50.08;101020.19;143750;581;46008;-86
2021/04/05 08:49:11;;;;;;;12.90;7.00;;;;;;;15.74;50.29;101013.13;143750;743;46018;-84
2021/04/05 08:51:50;;;;;;;14.57;7.57;;;;;;;15.70;51.60;101004.28;143754;564;47008;-83
2021/04/05 08:54:25;;;;;;;14.23;7.50;;;;;;;15.84;51.87;100997.78;143747;701;46018;-88
2021/04/05 08:57:01;;;;;;;13.60;7.62;;;;;;;15.94;51.71;101009.44;143747;599;47008;-89
2021/04/05 08:59:44;;;;;;;18.33;8.05;;;;;;;15.73;50.62;101019.16;143751;645;46016;-83
2021/04/05 09:02:42;;;;;;;15.25;7.47;;;;;;;15.79;51.12;101019.38;143749;582;47008;-83
2021/04/05 09:05:30;;;;;;;13.98;7.90;;;;;;;15.85;51.29;101030.06;143743;691;47020;-89
2021/04/05 09:08:06;;;;;;;11.25;8.60;;;;;;;15.81;50.99;101042.12;143750;581;46008;-86
2021/04/05 09:10:49;;;;;;;17.30;7.50;;;;;;;15.74;50.70;101034.91;143745;573;46018;-83
2021/04/05 09:13:28;;;;;;;12.18;8.27;;;;;;;15.70;50.75;101031.31;143751;583;47008;-82
2021/04/05 09:16:44;;;;;;;15.43;8.10;;;;;;;15.83;52.96;101027.41;143750;584;46018;-85
2021/04/05 09:19:56;;;;;;;12.55;7.90;;;;;;;15.94;51.08;101030.37;143562;65;94164;-85
2021/04/05 09:22:49;;;;;;;11.82;6.90;;;;;;;15.78;51.29;101031.56;143751;569;46019;-84
2021/04/05 09:25:59;;;;;;;15.23;8.15;;;;;;;15.90;53.58;101041.56;143754;589;46010;-83
2021/04/05 09:28:52;;;;;;;13.10;8.18;;;;;;;16.03;52.30;101040.25;143743;563;46019;-86
2021/04/05 09:31:53;;;;;;;11.68;7.72;;;;;;;16.01;52.20;101037.59;143751;571;47030;-91
2021/04/05 09:35:25;;;;;;;15.20;8.20;;;;;;;16.12;52.11;101040.56;143751;572;46019;-89
2021/04/05 09:38:44;;;;;;;13.25;8.40;;;;;;;16.00;51.00;101027.97;143755;571;46010;-74
2021/04/05 09:42:03;;;;;;;15.35;8.40;;;;;;;16.13;51.49;101017.06;192013;61;71733;-76
2021/04/05 09:44:44;;;;;;;14.25;8.38;;;;;;;16.04;51.02;101021.97;143752;582;46010;-75
2021/04/05 09:47:57;;;;;;;14.98;8.38;;;;;;;15.90;51.29;101031.09;143749;579;46018;-75
2021/04/05 09:50:46;;;;;;;20.10;8.20;;;;;;;15.77;51.21;101021.94;143753;629;46011;-75
2021/04/05 09:53:31;;;;;;;18.52;8.80;;;;;;;15.79;51.05;101040.28;143750;635;46022;-75
2021/04/05 09:56:09;;;;;;;13.82;8.00;;;;;;;15.91;52.07;101045.94;143756;613;46010;-77
2021/04/05 09:58:51;;;;;;;14.57;8.00;;;;;;;16.02;51.24;101033.25;143743;568;46019;-75
2021/04/05 10:01:24;;;;;;;11.45;8.25;;;;;;;16.04;51.50;101036.78;143753;707;46010;-78
2021/04/05 10:04:14;;;;;;;15.23;8.38;;;;;;;16.08;50.49;101033.47;143749;593;46019;-75
2021/04/05 10:06:41;;;;;;;15.88;8.30;;;;;;;16.07;50.14;101029.06;143751;634;46010;-76
2021/04/05 10:09:10;;;;;;;12.73;8.10;;;;;;;16.19;51.18;101032.09;143750;563;46018;-76
2021/04/05 10:11:41;;;;;;;14.30;8.25;;;;;;;16.30;49.76;101037.69;143753;578;46010;-77
2021/04/05 10:14:10;;;;;;;10.90;8.15;;;;;;;16.39;49.95;101045.84;143750;577;46018;-75
2021/04/05 10:16:39;;;;;;;11.98;8.10;;;;;;;16.43;49.83;101034.63;143752;583;46010;-75
2021/04/05 10:19:10;;;;;;;15.18;9.18;;;;;;;16.50;49.13;101030.47;143751;576;46018;-77
2021/04/05 10:21:50;;;;;;;13.90;9.73;;;;;;;16.56;48.20;101026.31;143753;576;46019;-77
2021/04/05 10:24:21;;;;;;;14.40;9.05;;;;;;;16.67;49.76;101033.66;143749;562;46018;-76
2021/04/05 10:26:52;;;;;;;14.27;9.02;;;;;;;16.71;48.43;101032.88;143751;576;46010;-76
2021/04/05 10:29:23;;;;;;;19.77;8.88;;;;;;;16.76;48.55;101039.16;143747;568;46019;-75
2021/04/05 10:31:50;;;;;;;13.52;9.48;;;;;;;16.84;48.33;101035.94;143748;614;48010;-76
2021/04/05 10:34:22;;;;;;;18.40;8.90;;;;;;;16.90;48.53;101031.75;143743;646;46019;-76
2021/04/05 10:36:55;;;;;;;15.80;8.15;;;;;;;16.81;46.67;101019.25;143752;568;46010;-76
2021/04/05 10:39:22;;;;;;;12.95;7.87;;;;;;;16.61;48.31;101013.37;143751;611;46018;-76
2021/04/05 10:41:58;;;;;;;16.33;8.07;;;;;;;16.56;48.09;101005.38;143752;609;46011;-76
2021/04/05 10:44:28;;;;;;;14.15;7.65;;;;;;;16.47;47.76;100996.34;143749;628;46021;-75
2021/04/05 10:47:09;;;;;;;13.38;8.55;;;;;;;16.37;48.09;100995.16;143751;658;46010;-77
2021/04/05 10:49:39;;;;;;;13.65;8.10;;;;;;;16.41;49.55;100983.94;143745;613;46019;-75
2021/04/05 10:52:15;;;;;;;14.93;9.27;;;;;;;16.46;49.93;100982.37;143753;568;47010;-75
2021/04/05 10:54:46;;;;;;;16.20;8.20;;;;;;;16.61;49.69;100980.25;143749;581;46020;-76
2021/04/05 10:57:18;;;;;;;15.07;8.95;;;;;;;16.67;48.19;100982.16;143752;593;46010;-74
2021/04/05 10:59:51;;;;;;;12.75;8.68;;;;;;;16.73;49.01;100968.34;143752;565;46012;-75
2021/04/05 11:02:37;;;;;;;14.02;9.15;;;;;;;16.68;47.99;100978.69;143753;587;46010;-76
2021/04/05 11:05:12;;;;;;;13.35;8.25;;;;;;;16.66;47.60;100964.66;143750;646;46020;-79
2021/04/05 11:07:41;;;;;;;14.32;8.65;;;;;;;16.72;48.97;100967.47;143750;575;46045;-76
2021/04/05 11:10:16;;;;;;;21.45;8.73;;;;;;;16.71;47.34;100962.19;143748;567;47018;-77
2021/04/05 11:12:46;;;;;;;14.63;9.00;;;;;;;16.76;49.24;100963.22;143753;577;46011;-77
2021/04/05 11:15:17;;;;;;;12.90;8.40;;;;;;;16.73;49.63;100965.72;143741;559;46020;-78
2021/04/05 11:17:47;;;;;;;14.07;8.95;;;;;;;16.75;50.09;100964.97;143752;567;46010;-80
2021/04/05 11:20:16;;;;;;;15.45;8.23;;;;;;;16.73;48.93;100957.88;143751;568;46012;-78
2021/04/05 11:22:44;;;;;;;12.50;8.18;;;;;;;16.72;47.88;100956.09;143753;562;46010;-79
2021/04/05 11:25:17;;;;;;;10.70;7.90;;;;;;;16.68;47.85;100957.75;143749;637;46914;-77
2021/04/05 11:27:52;;;;;;;13.60;8.15;;;;;;;16.71;48.94;100947.38;143751;569;46010;-77
2021/04/05 11:30:25;;;;;;;11.00;8.25;;;;;;;16.82;50.93;100955.56;143750;571;46018;-76
2021/04/05 11:32:53;;;;;;;11.23;9.07;;;;;;;16.97;49.76;100961.25;143751;561;46010;-77
2021/04/05 11:35:28;;;;;;;15.70;8.10;;;;;;;16.95;47.24;100955.09;143751;592;46019;-77
2021/04/05 11:37:59;;;;;;;18.00;8.32;;;;;;;16.85;47.92;100955.66;143752;574;46010;-76
2021/04/05 11:40:30;;;;;;;15.07;8.40;;;;;;;16.83;47.19;100952.13;143742;604;46018;-78
2021/04/05 11:43:00;;;;;;;15.38;8.65;;;;;;;16.83;47.21;100957.34;143751;576;47010;-78
2021/04/05 11:45:39;;;;;;;15.82;8.98;;;;;;;16.98;47.60;100955.19;143749;564;46018;-80
2021/04/05 11:48:21;;;;;;;9.63;7.60;;;;;;;16.83;46.77;100955.63;143751;611;46010;-76
2021/04/05 11:50:52;;;;;;;12.98;8.43;;;;;;;16.95;47.93;100954.22;143750;591;46019;-78
2021/04/05 11:53:51;;;;;;;12.60;8.73;;;;;;;17.00;47.01;100944.72;143754;574;46010;-78
2021/04/05 11:56:26;;;;;;;12.05;7.72;;;;;;;17.09;47.53;100945.87;143743;595;46019;-78
2021/04/05 11:59:02;;;;;;;;;;;;;;;17.23;48.29;100966.38;143756;980;46010;-76
2021/04/05 12:01:32;;;;;;;;;;;;;;;17.09;46.24;100961.59;143762;979;46010;-77
2021/04/05 12:04:08;;;;;;;12.05;8.15;;;;;;;17.04;47.16;100946.59;143756;625;46011;-78
2021/04/05 12:06:46;;;;;;;14.48;8.05;;;;;;;17.12;48.08;100938.97;143744;635;46021;-77
2021/04/05 12:09:24;;;;;;;13.27;7.50;;;;;;;17.19;46.32;100923.44;143751;581;46010;-78
2021/04/05 12:12:02;;;;;;;13.25;8.35;;;;;;;17.06;46.10;100923.94;143751;585;46018;-77
2021/04/05 12:14:30;;;;;;;19.65;8.32;;;;;;;17.13;47.33;100923.25;143752;581;46010;-78
2021/04/05 12:16:59;;;;;;;13.07;8.13;;;;;;;17.25;46.16;100923.59;143748;575;46018;-86
2021/04/05 12:19:43;;;;;;;10.95;7.53;;;;;;;17.28;46.59;100930.66;143750;602;46010;-77